x

8454049 - Quonset Point, Ri (qptr1) Weather Station

5:00 - Wed 27th May 2015 All times are EDT. -4 hours from GMT.

  • Wind
    23mph, 29mph gusts
  • Sea Temp 62°f
  • Ar Temp 67°f
  • Sea Pressure 1020.5mb
  • 8454049 - Quonset Point, Ri
  • 8454049 - Quonset Point, Ri

More Historic Weather Station data

Upgrade to MSW Pro to gain access to the past 30 days of data for over 8000 Wavebouys and Weather Stations around the globe.

Join Pro

Comparision Forecast

View Surf forecast
   
Qua 05/27 5:00 23 29 mph 1020.5mb 62f 67f
4:54 23 34 mph 1020.5mb 62f 67f
4:48 29 34 mph 1020.4mb 62f 67f
4:42 22 26 mph 1020.5mb 62f 67f
4:36 22 28 mph 1020.4mb 63f 67f
4:30 23 29 mph 1020.4mb 63f 67f
4:24 18 29 mph 1020.6mb 63f 67f
4:18 22 31 mph 1020.5mb 63f 67f
4:12 25 31 mph 1020.4mb 63f 67f
4:06 22 28 mph 1020.5mb 63f 67f
4:00 21 25 mph 1020.6mb 63f 67f
3:54 20 22 mph 1020.6mb 63f 67f
3:48 22 26 mph 1020.6mb 63f 67f
3:42 20 26 mph 1020.8mb 63f 67f
3:36 20 26 mph 1020.8mb 63f 67f
3:30 20 24 mph 1020.9mb 62f 67f
3:24 21 26 mph 1020.8mb 62f 67f
3:18 20 28 mph 1020.9mb 62f 67f
3:12 22 28 mph 1021mb 62f 67f
3:06 24 29 mph 1021mb 62f 67f
3:00 21 24 mph 1021mb 62f 67f
2:54 20 25 mph 1021.1mb 62f 67f
2:48 16 22 mph 1021.1mb 62f 67f
2:42 18 28 mph 1021mb 62f 67f
2:36 15 22 mph 1021mb 62f 67f
2:30 17 23 mph 1021mb 62f 66f
2:24 18 25 mph 1021.1mb 62f 66f
2:18 18 25 mph 1021.2mb 62f 67f
2:12 17 22 mph 1021.3mb 62f 67f
2:06 21 30 mph 1021.3mb 62f 67f
2:00 16 21 mph 1021.4mb 62f 67f
1:54 17 21 mph 1021.5mb 62f 67f
1:48 18 22 mph 1021.5mb 62f 67f
1:42 18 25 mph 1021.5mb 62f 68f
1:36 24 28 mph 1021.4mb 62f 68f
1:30 18 22 mph 1021.5mb 62f 68f
1:24 15 20 mph 1021.6mb 62f 67f
1:18 17 20 mph 1021.7mb 62f 67f
1:12 14 20 mph 1021.7mb 62f 67f
1:06 16 20 mph 1021.7mb 61f 67f
1:00 18 23 mph 1021.8mb 61f 67f
12:54 21 23 mph 1021.9mb 61f 67f
12:48 20 22 mph 1021.9mb 61f 67f
12:42 16 18 mph 1022.1mb 61f 66f
12:36 16 18 mph 1022.3mb 61f 66f
12:30 16 20 mph 1022.3mb 61f 65f
12:24 15 20 mph 1022.3mb 61f 66f
12:18 14 16 mph 1022.3mb 61f 66f
12:12 16 20 mph 1022.2mb 61f 66f
12:06 16 20 mph 1022.2mb 61f 66f
12:00 16 21 mph 1022.2mb 61f 66f
11:54 17 20 mph 1022.3mb 61f 65f
11:48 17 20 mph 1022.3mb 61f 65f
11:42 17 21 mph 1022.3mb 61f 65f
11:36 20 23 mph 1022.3mb 61f 62f
11:30 21 24 mph 1022.3mb 61f 62f
11:24 23 25 mph 1022.3mb 61f 62f
11:18 22 25 mph 1022.2mb 61f 62f
11:12 23 25 mph 1022.1mb 61f 62f
11:06 22 25 mph 1022.1mb 61f 62f
11:00 22 24 mph 1022.1mb 60f 63f
10:54 18 23 mph 1022.2mb 60f 63f
10:48 16 20 mph 1022.2mb 60f 63f
10:42 15 17 mph 1022.3mb 60f 63f
10:36 14 16 mph 1022.3mb 60f 63f
10:30 14 17 mph 1022.3mb 60f 63f
10:24 13 15 mph 1022.3mb 60f 64f
10:18 10 14 mph 1022.2mb 60f 64f
10:12 10 11 mph 1022mb 60f 65f
10:06 10 15 mph 1022.2mb 60f 65f
10:00 13 14 mph 1022.1mb 60f 65f
9:54 13 15 mph 1022.2mb 60f 65f
9:48 13 14 mph 1022.3mb 60f 65f
9:42 13 17 mph 1022.2mb 60f 65f
9:36 13 18 mph 1022.2mb 60f 65f
9:30 17 20 mph 1022.2mb 60f 65f
9:24 16 21 mph 1022.2mb 60f 64f
9:18 18 22 mph 1022.2mb 60f 64f
9:12 15 21 mph 1022.3mb 60f 64f
9:06 17 21 mph 1022.4mb 60f 65f
9:00 15 18 mph 1022.5mb 60f 65f
8:54 11 17 mph 1022.5mb 60f 64f
8:48 16 18 mph 1022.4mb 60f 64f
8:42 14 16 mph 1022.4mb 60f 64f
8:36 16 17 mph 1022.4mb 60f 63f
8:30 14 17 mph 1022.3mb 60f 63f
8:24 14 15 mph 1022.3mb 60f 63f
8:18 14 16 mph 1022.4mb 60f 63f
8:12 14 16 mph 1022.4mb 60f 63f
8:06 14 17 mph 1022.4mb 60f 63f
8:00 13 17 mph 1022.4mb 59f 63f
7:54 14 17 mph 1022.5mb 59f 63f
7:48 13 15 mph 1022.5mb 59f 61f
7:42 14 16 mph 1022.4mb 59f 60f
7:36 14 17 mph 1022.3mb 59f 60f
7:30 14 16 mph 1022.3mb 59f 60f
7:24 14 16 mph 1022.3mb 59f 60f
7:18 13 15 mph 1022.4mb 59f 59f
7:12 14 16 mph 1022.3mb 59f 59f
7:06 15 17 mph 1022.3mb 60f 59f
7:00 15 16 mph 1022.3mb 60f 59f
6:54 15 16 mph 1022.3mb 60f 59f
6:48 15 17 mph 1022.3mb 60f 59f
6:42 15 16 mph 1022.3mb 60f 59f
6:36 11 14 mph 1022.3mb 60f 59f
6:30 11 14 mph 1022.3mb 60f 59f
6:24 13 14 mph 1022.3mb 60f 59f
6:18 13 14 mph 1022.2mb 60f 59f
6:12 13 14 mph 1022.2mb 60f 59f
6:06 11 13 mph 1022.2mb 60f 60f
6:00 11 14 mph 1022.2mb 60f 60f
5:54 11 13 mph 1022.2mb 60f 60f
5:48 11 14 mph - - -
5:42 14
mph
- - -
5:36 14 16 mph - - -
5:30 15 17 mph 1022.1mb 60f 59f
5:24 16 17 mph 1022.1mb 60f 59f
5:18  -  mph 1022mb 60f 58f
5:12  -  mph 1022mb 60f 58f
5:06  -  mph 1021.9mb 60f 58f
5:00 15 17 mph 1021.9mb 60f 58f
4:54 15 17 mph 1021.8mb 60f 58f
4:48 16 18 mph 1021.8mb 60f 58f
4:42 13 15 mph 1021.8mb 60f 59f
4:36 10 11 mph 1021.8mb 60f 60f
4:30 11 13 mph 1021.7mb 60f 61f
4:24 11 13 mph 1021.7mb 61f 61f
4:18 11 14 mph 1021.6mb 61f 59f
4:12 13 14 mph 1021.6mb 61f 59f
4:06 14
mph
1021.5mb 61f 59f
4:00 14 15 mph 1021.5mb 61f 58f
3:54 14 16 mph 1021.5mb 61f 58f
3:48 15 16 mph 1021.5mb 61f 58f
3:42 15 17 mph 1021.5mb 61f 58f
3:36 16 18 mph 1021.5mb 61f 58f
3:30  -  mph 1021.5mb - -
3:24  -  mph - 61f -
3:18 15 17 mph 1021.5mb 61f -
3:12 16 17 mph 1021.4mb 61f -
3:06 15 17 mph 1021.5mb 61f -
3:00 15 17 mph 1021.6mb 61f -
2:48 15 17 mph 1021.6mb - -
2:42 14 16 mph 1021.7mb - -
2:36 14 15 mph 1021.7mb - -
2:30 13 16 mph 1021.7mb 61f 60f
2:24 13 15 mph 1021.7mb 61f 62f
2:18 14 16 mph 1021.7mb 61f 63f
2:12 13 15 mph 1021.8mb 61f 63f
2:06 11 15 mph 1021.9mb 61f 62f
2:00  -  mph - - 62f
1:54  -  mph - - 63f
1:48 11 14 mph 1022mb 61f 62f
1:42 13 15 mph 1022mb 61f 63f
1:36 11 15 mph 1022mb 61f 63f
1:30 11 14 mph 1022mb 60f 63f
1:24 10 15 mph 1022mb 60f 63f
1:18 13 14 mph 1022mb 60f 63f
1:12 10 14 mph 1022.1mb 60f 63f
1:06 13 16 mph 1022.1mb 60f 63f
1:00 11 15 mph 1022.1mb 60f 63f
12:54 13 16 mph 1022.1mb 60f 63f
12:48 11 15 mph 1022.1mb 60f 63f
12:42 14 16 mph 1022mb 61f 63f
12:36 15 18 mph 1021.9mb 61f 63f
12:30 16 20 mph 1021.9mb 61f 64f
12:24 13 17 mph 1022mb 61f 63f
12:18 11 16 mph 1022.1mb 61f 63f
12:12 13 16 mph 1022.1mb 61f 63f
12:06 11 17 mph 1022.1mb 61f 63f
12:00 14 18 mph 1022.1mb 61f 64f
Ter 05/26 11:54 13 17 mph 1022.2mb 61f 63f
11:48 11 16 mph 1022.2mb 61f 63f
11:42 15 17 mph 1022.2mb 61f 63f
11:36 14 17 mph 1022.1mb 61f 63f
11:30 11 15 mph 1022.1mb 61f 63f
11:24 13 16 mph 1022mb 61f 63f
11:18 13 18 mph 1022mb 61f 63f
11:12 14 17 mph 1021.9mb 61f 63f
11:06 14 18 mph 1021.9mb 61f 63f
11:00 14 20 mph 1021.8mb 61f 64f
10:54 16 18 mph 1021.7mb 61f 64f
10:48 14 18 mph 1021.7mb 61f 64f
10:42 14 16 mph 1021.7mb 61f 64f
10:36 14 18 mph 1021.6mb 61f 64f
10:30 14 17 mph 1021.7mb 61f 64f
10:24 14 16 mph 1021.6mb 61f 64f
10:18 9 13 mph 1021.6mb 61f 63f
10:12 9 13 mph 1021.7mb 61f 63f
10:06 11 15 mph 1021.7mb 61f 63f
10:00 11 18 mph 1021.6mb 61f 63f
9:54 14 17 mph 1021.6mb 61f 64f
9:48 14 18 mph 1021.7mb 62f 64f
9:42 14 17 mph 1021.7mb 62f 64f
9:36 13 16 mph 1021.6mb 62f 64f
9:30 11 14 mph 1021.6mb 62f 64f
9:24 10 14 mph 1021.6mb 62f 65f
9:18 8 11 mph 1021.6mb 62f 64f
9:12 7 10 mph 1021.6mb 62f 64f
9:06 8 10 mph 1021.6mb 62f 64f
9:00 8 10 mph 1021.5mb 62f 64f
8:54 8 11 mph 1021.4mb 62f 65f
8:48 9 11 mph 1021.3mb 62f 65f
8:42 10 13 mph 1021.2mb 62f 65f
8:36 11 16 mph 1021mb 62f 65f
8:30 14 18 mph 1021mb 62f 66f
8:24 15 18 mph 1021mb 62f 66f
8:18 16 21 mph 1021mb 62f 66f
8:12 18 23 mph 1021mb 62f 66f
8:06 18 24 mph 1020.9mb 62f 67f
8:00 18 21 mph 1020.9mb 62f 67f
7:54 18 22 mph 1020.9mb 62f 67f
7:48 15 18 mph 1020.9mb 62f 67f
7:42 16 21 mph 1020.9mb 62f 67f
7:36 17 21 mph 1020.9mb 62f 67f
7:30 18 21 mph 1020.8mb 62f 68f
7:24 16 20 mph 1020.8mb 62f 68f
7:18 18 24 mph 1020.8mb 62f 69f
7:12 18 22 mph 1020.9mb 62f 69f
7:06 20 25 mph 1020.9mb 62f 69f
7:00 17 24 mph 1020.9mb 62f 69f
6:54 16 25 mph 1021mb 62f 69f
6:48 18 28 mph 1021mb 62f 69f
6:42 22 29 mph 1020.9mb 61f 69f
6:36 18 24 mph 1020.9mb 61f 70f
6:30 23 25 mph 1020.8mb 61f 70f
6:24 21 25 mph 1020.8mb 60f 70f
6:18 21 25 mph 1020.8mb 60f 71f
6:12 22 25 mph 1020.7mb 60f 71f
6:06 20 24 mph 1020.8mb 60f 71f
6:00 18 24 mph 1020.8mb 60f 70f
5:54 20 22 mph 1020.7mb 60f 70f
5:48 16 20 mph 1020.7mb 60f 70f
5:42 17 22 mph 1020.7mb 60f 71f
5:36 20 25 mph 1020.7mb 60f 71f
5:30 21 25 mph 1020.7mb 60f 71f
5:24 22 26 mph 1020.7mb 60f 71f
5:18 18 24 mph 1020.8mb 60f 71f
5:12 14 22 mph 1020.9mb 60f 66f
5:06 15 23 mph 1020.8mb 60f 69f
5:00 16 24 mph 1020.7mb 60f 71f
4:54 21 24 mph 1020.7mb 60f 71f
4:48 18 23 mph 1020.7mb 60f 71f
4:42 18 21 mph 1020.7mb 60f 71f
4:36 22 26 mph 1020.6mb 60f 71f
4:30 20 23 mph 1020.7mb 61f 72f
4:24 14 17 mph 1020.8mb 61f 66f
4:18 14 25 mph 1020.8mb 61f 65f
4:12 20 25 mph 1020.6mb 61f 73f
4:06 17 24 mph 1020.6mb 61f 72f
4:00 22 29 mph 1020.6mb 61f 72f
3:54 17 22 mph 1020.6mb 61f 72f
3:48 18 25 mph 1020.7mb 61f 71f
3:42 23 28 mph 1020.6mb 61f 73f
3:36 24 29 mph 1020.7mb 61f 72f
3:30 25 28 mph 1020.6mb 61f 72f
3:24 22 25 mph 1020.7mb 61f 72f
3:18 22 28 mph 1020.9mb 61f 72f
3:12 21 29 mph 1021mb 61f 72f
3:06 23 28 mph 1021mb 61f 72f
3:00 22 29 mph 1020.9mb 61f 73f
2:54 23 26 mph 1020.9mb 60f 73f
2:48 20 23 mph 1021mb 60f 73f
2:42 18 24 mph 1021.1mb 60f 73f
2:36 15 18 mph 1021.3mb 60f 67f
2:30 16 18 mph 1021.4mb 60f 64f
2:24 15 18 mph 1021.5mb 60f 64f
2:18 14 17 mph 1021.5mb 60f 63f
2:12 14 18 mph 1021.4mb 60f 63f
2:06 17 20 mph 1021.4mb 60f 63f
2:00 16 18 mph 1021.5mb 60f 63f
1:54 17 20 mph 1021.5mb 60f 62f
1:48 15 20 mph 1021.6mb 60f 62f
1:30 15 18 mph 1021.9mb 60f 62f
1:24 17 18 mph 1021.9mb 60f 63f
1:18 16 18 mph 1022mb 60f 63f
1:12 16 18 mph 1022mb 60f 63f
1:06 17 18 mph 1022.2mb 60f 63f
1:00 16 17 mph 1022.1mb 60f 63f
12:54 16 17 mph 1022.2mb 60f 63f
12:48 16 18 mph 1022.3mb 60f 63f
12:42 16 17 mph 1022.2mb 60f 63f
12:36 14 15 mph 1022.3mb 60f 63f
12:30 14 16 mph 1022.3mb 60f 65f
12:24 15 16 mph 1022.2mb 60f 64f
12:18 15 16 mph 1022.2mb 60f 64f
12:12 14 17 mph 1022.1mb 60f 64f
12:06 14 17 mph 1022.1mb 60f 64f
12:00 16 17 mph 1022.1mb 60f 64f
11:54 16 17 mph 1022.1mb 60f 65f
11:48 15 18 mph 1022.2mb 60f 64f
11:42 16 18 mph 1022.2mb 60f 64f
11:36 16 18 mph 1022.1mb 60f 64f
11:30 14 16 mph 1022.2mb 60f 67f
11:24 13 15 mph 1022.2mb 60f 67f
11:18 10 13 mph 1022.3mb 60f 67f
11:12 11 14 mph 1022.4mb 60f 69f
11:06 13 16 mph 1022.4mb 60f 70f
11:00 15 18 mph 1022.5mb 60f 69f
10:54 14 17 mph 1022.4mb 60f 69f
10:48 9 21 mph 1022.2mb 59f 69f
10:42 13 16 mph 1022mb 59f 69f
10:36 13 16 mph 1022mb 59f 68f
10:30 15 17 mph 1021.9mb 59f 68f
10:24 14 16 mph 1021.9mb 59f 67f
10:18 14 15 mph 1021.9mb 59f 66f
10:12 13 18 mph 1021.9mb 59f 65f
10:06 16 18 mph 1022mb 59f 67f
10:00 15 16 mph 1022.1mb 59f 67f
9:54 14 16 mph 1022.2mb 59f 65f
9:48 11 14 mph 1022.3mb 59f 66f
9:42 14 15 mph 1022.3mb 59f 65f
9:36 13 16 mph 1022.3mb 59f 65f
9:30 16 20 mph 1022.2mb 59f 67f
9:24 15 17 mph 1022.3mb 59f 67f
9:18 14 18 mph 1022.3mb 59f 67f
9:12 16 18 mph 1022.4mb 59f 67f
9:06 16 20 mph 1022.4mb 59f 66f
9:00 16 21 mph 1022.4mb 58f 65f
8:54 14 18 mph 1022.4mb 58f 65f
8:48 10 18 mph 1022.5mb 58f 65f
8:42 13 17 mph 1022.6mb 58f 65f
8:36 16 21 mph 1022.5mb 58f 65f
8:30 14 20 mph 1022.4mb 58f 65f
8:24 16 18 mph 1022.3mb 58f 65f
8:18 11 18 mph 1022.4mb 58f 64f
8:12 15 17 mph 1022.3mb 58f 64f
8:06 13 16 mph 1022.4mb 58f 63f
8:00 16 20 mph 1022.4mb 58f 63f
7:54 14 17 mph 1022.5mb 58f 63f
7:48 14 16 mph 1022.6mb 58f 63f
7:42 13 16 mph 1022.7mb 58f 62f
7:36 14 17 mph 1022.6mb 58f 62f
7:30 13 15 mph 1022.6mb 58f 62f
7:24 13 17 mph 1022.6mb 58f 62f
7:18 13 16 mph 1022.6mb 58f 61f
7:12 13 16 mph 1022.7mb 58f 61f
7:06 11 16 mph 1022.6mb 58f 61f
7:00 13 15 mph 1022.5mb 58f 61f
6:54 10 17 mph 1022.5mb 58f 61f
6:48 13 17 mph 1022.4mb 58f 61f
6:42 11 16 mph 1022.4mb 58f 61f
6:36 11 15 mph 1022.4mb 58f 61f
6:30 13 16 mph 1022.3mb 58f 61f
6:24 14 16 mph 1022.2mb 58f 61f
6:18 14 17 mph 1022.2mb 58f 61f
6:12 13 16 mph 1022.2mb 58f 61f
6:06 13 16 mph 1022.2mb 58f 61f
5:54 11 14 mph 1022.2mb 58f 61f
5:48 11 17 mph 1022.1mb 58f 61f
5:42 11 16 mph 1022mb 58f 60f
5:36 13 15 mph 1022mb 58f 61f
5:30 14 15 mph 1022mb 58f 61f
5:24 14 16 mph 1021.9mb 58f 61f
5:18 14 17 mph 1021.9mb 58f 61f
5:12 13 17 mph 1022mb 58f 60f
5:06 15 17 mph 1022.1mb 58f 61f
5:00 14 17 mph 1022mb 58f 61f
4:54 15 20 mph 1021.9mb 58f 61f
4:48 16 18 mph 1021.8mb 58f 61f
4:42 16 20 mph 1021.8mb 58f 61f
4:36 16 21 mph 1021.8mb 58f 61f
4:30 14 16 mph 1021.8mb 58f 61f
4:24 16 18 mph 1021.8mb 58f 61f
4:18 15 17 mph 1021.8mb 59f 61f
4:12 15 17 mph 1021.9mb 59f 61f
4:06 14 17 mph 1021.9mb 59f 61f
4:00 13 17 mph 1021.9mb 59f 61f
3:54 17 23 mph 1021.8mb 59f 61f
3:48 18 21 mph 1021.7mb 59f 61f
3:42 15 20 mph 1021.7mb 59f 61f
3:36 16 24 mph 1021.8mb 59f 61f
3:30 20 23 mph 1021.7mb 59f 61f
3:24 17 21 mph 1021.8mb 59f 61f
3:18 18 21 mph 1021.8mb 59f 62f
3:12 18 22 mph 1021.8mb 59f 62f
3:06 16 22 mph 1021.8mb 59f 62f
3:00 15 20 mph 1021.8mb 59f 62f
2:54 16 21 mph 1021.8mb 59f 62f
2:48 17 22 mph - 59f 62f
2:42 16 20 mph - 59f 62f
2:36 16 21 mph - 59f 63f
2:30 16 20 mph 1021.6mb 59f 63f
2:24 15 21 mph 1021.6mb 59f 63f
2:18 16 21 mph 1021.6mb 59f 63f
2:12 17 21 mph 1021.7mb 59f 63f
2:06 16 22 mph 1021.6mb 59f 63f
2:00 17 21 mph 1021.7mb 59f 63f
1:54 16 20 mph 1021.8mb 59f 62f
1:48 15 18 mph 1021.9mb 59f 62f
1:42 14 17 mph 1022mb 59f 62f
1:36 14 15 mph 1022mb 59f 62f
1:30 14 17 mph 1022.1mb 59f 62f
1:24 16 20 mph 1022.1mb 59f 62f
1:18 16 21 mph 1022.1mb 59f 63f
1:12 16 20 mph 1022.2mb 60f 63f
1:06 17 20 mph 1022.2mb 60f 62f
1:00 17 21 mph 1022.2mb 60f 62f
12:54 17 22 mph 1022.3mb 60f 62f
12:48 17 20 mph 1022.3mb 59f 63f
12:42 16 18 mph 1022.3mb 59f 62f
12:36 15 18 mph 1022.4mb 59f 62f
12:30 16 20 mph 1022.4mb 59f 62f
12:24 14 16 mph 1022.4mb 59f 62f
12:18 16 18 mph 1022.4mb 59f 62f
12:12 14 20 mph 1022.5mb 59f 62f
12:06 16 23 mph 1022.5mb 59f 63f
12:00 17 20 mph 1022.4mb 59f 62f
Seg 05/25 11:54 16 21 mph 1022.4mb 59f 62f
11:48 16 20 mph 1022.5mb 59f 62f
11:42 15 18 mph 1022.4mb 60f 62f
11:36 14 16 mph 1022.5mb 60f 62f
11:30 13 15 mph 1022.4mb 60f 62f
11:24 13 14 mph 1022.3mb 60f 62f
11:18 13 15 mph 1022.3mb 60f 62f
11:12 14 16 mph 1022.3mb 60f 62f
11:06 14 15 mph 1022.3mb 60f 62f
11:00 14 16 mph 1022.2mb 60f 62f
10:54 13 17 mph 1022.2mb 60f 61f
10:48 14 16 mph 1022.2mb 60f 62f
10:42 14 17 mph 1022.2mb 60f 62f
10:36 15 18 mph 1022.2mb 60f 62f
10:30 15 16 mph 1022.2mb 60f 61f
10:24 14 16 mph 1022.3mb 60f 61f
10:18 14 17 mph 1022.5mb 60f 62f
10:12 13 17 mph 1022.4mb 59f 62f
10:06 13 15 mph 1022.5mb 59f 61f
10:00 13 15 mph 1022.6mb 59f 61f
9:54 13 15 mph 1022.5mb 59f 61f
9:48 13 15 mph 1022.4mb 59f 61f
9:42 14 17 mph 1022.4mb 59f 61f
9:36 14 16 mph 1022.4mb 59f 61f
9:30 14 16 mph 1022.4mb 59f 61f
9:24 14 17 mph 1022.4mb 59f 61f
9:18 15 20 mph 1022.4mb 59f 61f
9:12 14 18 mph 1022.4mb 59f 62f
9:06 11 14 mph 1022.4mb 58f 61f
9:00 11 14 mph 1022.5mb 58f 61f
8:54 9 15 mph 1022.5mb 58f 61f
8:48 11 14 mph 1022.4mb 58f 61f
8:42 11 13 mph 1022.4mb 58f 61f
8:36 10 13 mph 1022.4mb 58f 61f
8:30 11 14 mph 1022.3mb 58f 61f
8:24 13 14 mph 1022.3mb 58f 62f
8:18 13 16 mph 1022.4mb 58f 61f
8:12 11 14 mph 1022.4mb 58f 61f
8:06 14 16 mph 1022.4mb 58f 60f
8:00 15 18 mph 1022.4mb 58f 59f
7:54 17 18 mph 1022.3mb 58f 59f
7:48 16 18 mph 1022.3mb 58f 59f
7:42 16 18 mph 1022.3mb 58f 59f
7:36 16 18 mph 1022.3mb 58f 60f
7:30 17 18 mph 1022.4mb 58f 60f
7:24 15 16 mph 1022.4mb 58f 61f
7:18 15 16 mph 1022.4mb 58f 61f
7:12 13 17 mph 1022.4mb 58f 63f
7:06 16 17 mph 1022.3mb 58f 64f
7:00 13 15 mph 1022.4mb 58f 63f
6:54 15 17 mph 1022.3mb 58f 61f
6:48 16 18 mph 1022.4mb 58f 62f
6:42 16 20 mph 1022.4mb 58f 62f
6:36 17 20 mph 1022.5mb 58f 62f
6:30 17 21 mph 1022.5mb 58f 61f
6:24 17 20 mph 1022.4mb 58f 60f
6:18 17 20 mph 1022.4mb 58f 60f
6:12 18 20 mph 1022.4mb 58f 61f
6:06 17 21 mph 1022.3mb 58f 61f
6:00 18 21 mph 1022.2mb 58f 62f
5:54 20 21 mph 1022.2mb 58f 62f
5:48 18 20 mph 1022.4mb 58f 62f
5:42 17 20 mph 1022.5mb 58f 62f
5:36 16 17 mph 1022.6mb 58f 61f
5:30 14 17 mph 1022.6mb 58f 61f
5:24 15 16 mph 1022.6mb 58f 61f
5:18 13 14 mph 1022.6mb 58f 62f
5:12 13 14 mph 1022.7mb 58f 62f
5:06 13 15 mph 1022.6mb 58f 62f
5:00 14 18 mph 1022.6mb 58f 62f
4:54 15 18 mph 1022.6mb 58f 62f
4:48 17 20 mph 1022.6mb 58f 62f
4:42 17 21 mph 1022.7mb 58f 62f
4:36 16 18 mph 1022.8mb 58f 62f
4:30 16 20 mph 1022.7mb 58f 63f
4:24 17 20 mph 1022.7mb 58f 63f
4:18 16 18 mph 1022.7mb 58f 63f
4:12 16 18 mph 1022.7mb 58f 62f
4:06 17 20 mph 1022.7mb 58f 63f
4:00 17 21 mph 1022.7mb 58f 63f
3:54 17 20 mph 1022.7mb 58f 62f
3:48 18 21 mph 1022.7mb 59f 62f
3:42 20 22 mph 1022.6mb 59f 62f
3:36 20 22 mph 1022.5mb 59f 62f
3:30 21 23 mph 1022.6mb 59f 61f
3:24 20 22 mph 1022.7mb 59f 62f
3:18 18 20 mph 1022.9mb 59f 63f
3:12 17 20 mph 1022.9mb 58f 63f
3:06 17 18 mph 1023mb 58f 63f
3:00 17 21 mph 1023mb 58f 63f
2:54 17 22 mph 1022.9mb 58f 63f
2:48 18 21 mph 1022.9mb 58f 63f
2:42 20 22 mph 1022.9mb 58f 63f
2:36 20 23 mph 1022.9mb 58f 63f
2:30 20 23 mph 1022.9mb 58f 63f
2:24 21 22 mph 1022.9mb 58f 63f
2:18 20 23 mph 1023mb 58f 63f
2:12 20 22 mph 1023mb 58f 63f
2:06 21 22 mph 1023mb 58f 63f
2:00 20 22 mph 1023.1mb 58f 63f
1:54 17 21 mph 1023.3mb 58f 64f
1:48 18 22 mph 1023.3mb 58f 64f
1:42 17 22 mph 1023.2mb 58f 64f
1:36 18 20 mph 1023.3mb 58f 64f
1:30 17 18 mph 1023.6mb 58f 63f
1:24 17 18 mph 1023.8mb 58f 62f
1:18 17 18 mph 1023.9mb 58f 62f
1:12 17 18 mph 1023.9mb 58f 61f
1:06 17 18 mph 1024mb 58f 62f
1:00 17 18 mph 1024.1mb 58f 62f
12:54 17 18 mph 1024.1mb 58f 61f
12:48 17 18 mph 1024.1mb 58f 61f
12:42 17 18 mph 1024.1mb 58f 62f
12:36 16 17 mph 1024.1mb 58f 62f
12:30 17 18 mph 1024.1mb 58f 62f
12:24 16 17 mph 1024.2mb 58f 62f
12:18 16 17 mph 1024.2mb 58f 61f
12:12 16 17 mph 1024.2mb 58f 61f
12:06 16 17 mph 1024.3mb 58f 60f
12:00 16 17 mph 1024.4mb 58f 60f
11:54 16 17 mph 1024.4mb 58f 60f
11:48 16 17 mph 1024.4mb 58f 60f
11:42 15 17 mph 1024.5mb 58f 60f
11:36 16 18 mph 1024.5mb 58f 60f
11:30 15 17 mph 1024.5mb 58f 60f
11:24 16 18 mph 1024.5mb 58f 60f
11:18 16 18 mph 1024.4mb 58f 60f
11:12 18 20 mph 1024.4mb 58f 60f
11:06 16 18 mph 1024.4mb 58f 60f
11:00 16 18 mph 1024.4mb 58f 60f
10:54 16 18 mph 1024.4mb 58f 60f
10:48 15 20 mph 1024.4mb 58f 60f
10:42 16 18 mph 1024.3mb 58f 61f
10:36 15 17 mph 1024.3mb 58f 60f
10:30 16 17 mph 1024.3mb 58f 60f
10:24 16 17 mph 1024.3mb 58f 60f
10:18 15 17 mph 1024.4mb 58f 60f
10:12 14 16 mph 1024.4mb 58f 60f
10:06 14 15 mph 1024.3mb 58f 60f
10:00 14 17 mph 1024.3mb 58f 60f
9:54 14 15 mph 1024.3mb 58f 60f
9:48 15
mph
1024.3mb 58f 60f
9:42 14 15 mph 1024.3mb 58f 60f
9:36 13 14 mph 1024.4mb 58f 60f
9:30 11 13 mph 1024.4mb 58f 60f
9:24 11 13 mph 1024.6mb 58f 60f
9:18 11 13 mph 1024.5mb 58f 61f
9:12 11
mph
1024.5mb 58f 61f
9:06 10 11 mph 1024.5mb 58f 62f
9:00 10
mph
1024.5mb 58f 61f
8:54 10
mph
1024.4mb 57f 61f
8:48 9
mph
1024.4mb 57f 62f
8:42 9 10 mph 1024.5mb 57f 62f
8:36 9
mph
1024.5mb 57f 61f
8:30 8 9 mph 1024.5mb 57f 61f
8:24 9
mph
1024.6mb 57f 61f
8:18 9 10 mph 1024.6mb 57f 61f
8:12 9
mph
1024.6mb 57f 61f
8:06 9 10 mph 1024.5mb 57f 61f
8:00 9 11 mph 1024.5mb 57f 61f
7:54 10 13 mph 1024.6mb 57f 61f
7:48 10 11 mph 1024.6mb 57f 61f
7:42 10 11 mph 1024.6mb 57f 61f
7:36 10 11 mph 1024.6mb 57f 61f
7:30 10
mph
1024.6mb 57f 61f
7:24 10 11 mph 1024.6mb 57f 60f
7:18 10 13 mph 1024.6mb 57f 61f
7:12 10 11 mph 1024.5mb 57f 60f
7:06 9 10 mph 1024.5mb 57f 60f
7:00 9 10 mph 1024.5mb 57f 60f
6:54 8 10 mph 1024.5mb 57f 59f
6:48 9 11 mph 1024.5mb 57f 59f
6:42 8 10 mph 1024.4mb 57f 58f
6:36 8 9 mph 1024.4mb 57f 58f
6:30 7 8 mph 1024.4mb 57f 58f
6:24 7 8 mph 1024.5mb 57f 58f
6:18 7 9 mph 1024.5mb 57f 58f
6:12 7 9 mph 1024.5mb 57f 57f
6:06 8 9 mph 1024.5mb 57f 57f
6:00 8 9 mph 1024.5mb 57f 56f
5:54 8 9 mph 1024.4mb 57f 56f
5:48 8 9 mph 1024.4mb 57f 56f
5:42 8 9 mph 1024.4mb 57f 56f
5:36 9 11 mph 1024.4mb 57f 56f
5:30 9 10 mph 1024.3mb 57f 56f
5:24 9 10 mph 1024.3mb 57f 56f
5:18 9 10 mph 1024.2mb 57f 56f
5:12 9 10 mph 1024.2mb 57f 56f
5:06 9 10 mph 1024.1mb 57f 56f
5:00 9 10 mph 1024.1mb 57f 56f
4:54 9 10 mph 1024mb 57f 56f
4:48 9 10 mph 1023.9mb 57f 56f
4:42 9 10 mph 1023.8mb 57f 56f
4:36 9 10 mph 1023.8mb 57f 56f
4:30 10 11 mph 1023.8mb 57f 56f
4:24 9 10 mph 1023.8mb 57f 56f
4:18 9 10 mph 1023.8mb 57f 57f
4:12 9 10 mph 1023.8mb 57f 56f
4:06 9
mph
1023.7mb 57f 57f
4:00 9 10 mph 1023.7mb 57f 57f
3:54 9 10 mph 1023.6mb 57f 57f
3:48 8 9 mph 1023.6mb 58f 57f
3:42 8 9 mph 1023.6mb 58f 57f
3:36 8 9 mph 1023.5mb 58f 58f
3:30 8 9 mph 1023.6mb 58f 58f
3:24 8 9 mph 1023.6mb 58f 58f
3:18 8 9 mph 1023.5mb 58f 58f
3:12 8 9 mph 1023.6mb 58f 58f
3:06 8 9 mph 1023.6mb 58f 58f
3:00 8 9 mph 1023.7mb 58f 58f
2:54 8 9 mph 1023.6mb 58f 58f
2:48 8 10 mph - 58f 58f
2:42 9 10 mph - 58f 58f
2:36 9 11 mph - 58f 58f
2:30 9 11 mph 1023.6mb 58f 58f
2:24 10 13 mph 1023.7mb 58f 58f
2:18 10 13 mph 1023.7mb 58f 58f
2:12 9 11 mph 1023.8mb 58f 58f
2:06 8 9 mph 1023.9mb 58f 58f
2:00 7 9 mph 1023.8mb 58f 58f
1:54 6 8 mph 1023.8mb 58f 58f
1:48 7 8 mph 1023.9mb 58f 58f
1:42 6 8 mph 1023.8mb 58f 58f
1:36 8 9 mph 1023.8mb 58f 58f
1:30 9 10 mph 1023.8mb 58f 58f
1:24 9 11 mph 1023.8mb 58f 58f
1:18 10 14 mph 1023.8mb 58f 58f
1:12 13 14 mph 1023.8mb 58f 58f
1:06 11 15 mph 1023.8mb 58f 59f
1:00 13 15 mph 1023.8mb 58f 59f
12:54 13 16 mph 1023.8mb 58f 59f
12:48 15 17 mph 1023.8mb 58f 59f
12:42 15 20 mph 1023.8mb 58f 59f
12:36 15 17 mph 1023.9mb 58f 59f
12:30 15 17 mph 1024mb 58f 59f
12:24 15 17 mph 1024mb 58f 59f
12:18 14 17 mph 1023.9mb 58f 59f
12:12 15 18 mph 1023.9mb 58f 59f
12:06 16 18 mph 1023.9mb 58f 60f
12:00 15 17 mph 1023.9mb 58f 60f
Dom 05/24 11:54 16 18 mph 1024mb 58f 60f
11:48 16 18 mph 1024.1mb 58f 60f
11:42 16 20 mph 1024.1mb 58f 60f
11:36 15 18 mph 1024.2mb 58f 60f
11:30 16 20 mph 1024.2mb 58f 60f
11:24 17 20 mph 1024.1mb 58f 60f
11:18 17 21 mph 1024.1mb 58f 61f
11:12 16 20 mph 1024.1mb 58f 61f
11:06 16 18 mph 1024.1mb 58f 61f
11:00 16 20 mph 1024.1mb 58f 61f
10:54 16 21 mph 1024.1mb 58f 61f
10:48 17 21 mph 1024mb 58f 61f
10:42 17 21 mph 1024mb 58f 62f
10:36 17 22 mph 1024.1mb 58f 62f
10:30 18 23 mph 1024mb 58f 62f
10:18 20 24 mph 1024mb 58f 62f
10:12 18 23 mph 1024mb 58f 62f
10:06 18 23 mph 1024.1mb 58f 62f
10:00 20 25 mph 1024.1mb 58f 62f
9:54 18 20 mph 1024mb 58f 62f
9:06 16 21 mph 1023.7mb 59f 62f
8:54 16 21 mph 1023.6mb 59f 62f
8:42 16 18 mph 1023.5mb 59f 63f
8:36 16 20 mph 1023.5mb 58f 63f
8:30 18 20 mph 1023.3mb 58f 63f
8:24 17 22 mph 1023.3mb 58f 63f
8:18 17 20 mph 1023.4mb 58f 63f
8:12 17 21 mph 1023.3mb 58f 63f
8:06 17 21 mph 1023.3mb 58f 64f
8:00 16 23 mph 1023.3mb 58f 64f
7:54 18 22 mph 1023.2mb 58f 64f
7:48 17 23 mph 1023.1mb 59f 64f
7:42 20 24 mph 1023.1mb 59f 64f
7:36 21 24 mph 1023.1mb 59f 65f
7:30 20 24 mph 1023.1mb 59f 64f
7:24 20 23 mph 1023mb 59f 65f
7:18 20 23 mph 1023.1mb 59f 65f
7:12 22 26 mph 1022.9mb 59f 65f
7:06 21 24 mph 1022.9mb 59f 65f
7:00 21 29 mph 1022.9mb 59f 66f
6:54 16 21 mph 1022.9mb 59f 66f
6:48 18 22 mph 1022.9mb 59f 66f
6:42 18 24 mph 1022.7mb 59f 66f
6:36 18 24 mph 1022.7mb 59f 67f
6:30 16 18 mph 1022.7mb 59f 66f
6:24 14 18 mph 1022.7mb 59f 66f
6:18 15 18 mph 1022.7mb 59f 67f
6:12 16 18 mph 1022.7mb 59f 66f
6:06 16 21 mph 1022.7mb 59f 66f
6:00 16 22 mph 1022.7mb 59f 66f
5:54 17 21 mph 1022.7mb 59f 67f
5:48 20 22 mph 1022.7mb 59f 67f
5:42 20 23 mph 1022.7mb 59f 67f
5:36 17 23 mph 1022.5mb 59f 66f
5:30 18 23 mph 1022.6mb 59f 67f
5:24 17 21 mph 1022.6mb 59f 67f
5:18 18 22 mph 1022.8mb 58f 67f
5:12 16 20 mph 1022.8mb 58f 67f
5:06 18 25 mph 1022.7mb 58f 69f
5:00 23 28 mph 1022.5mb 58f 69f
4:54 21 25 mph 1022.6mb 58f 69f
4:48 18 24 mph 1022.7mb 57f 68f
4:42 20 24 mph 1022.6mb 57f 69f
4:36 17 21 mph 1022.6mb 57f 69f
4:30 16 20 mph 1022.7mb 57f 69f
4:24 14 24 mph 1022.8mb 57f 68f
4:18 17 22 mph 1022.7mb 57f 69f
4:12 11 21 mph 1022.8mb 57f 65f
4:06 15 16 mph 1022.8mb 57f 67f
4:00 14 17 mph 1022.8mb 57f 65f
3:54 16 21 mph 1022.6mb 57f 68f
3:48 16 20 mph 1022.7mb 57f 68f
3:42 18 24 mph 1022.7mb 57f 69f
3:36 18 22 mph 1022.8mb 58f 69f
3:30 18 25 mph 1022.7mb 58f 69f
3:24 20 25 mph 1022.7mb 58f 71f
3:18 20 22 mph 1022.8mb 58f 71f
3:06 24 30 mph 1022.8mb 58f 71f
3:00 23 28 mph 1022.7mb 58f 71f
2:54 23 28 mph 1022.8mb 58f 71f
2:48 23 26 mph 1022.9mb 58f 71f
2:42 22 26 mph 1022.8mb 58f 71f
2:36 21 24 mph 1022.8mb 58f 71f
2:30 20 25 mph 1022.8mb 58f 71f
2:24 20 25 mph 1022.8mb 58f 71f
2:18 21 23 mph 1022.8mb 58f 72f
2:12 21 23 mph 1022.9mb 58f 71f
2:06 17 28 mph 1023mb 58f 70f
2:00 18 28 mph 1023mb 58f 70f
1:54 17 24 mph 1023mb 58f 70f
1:48 21 29 mph 1023mb 58f 72f
1:42 24 26 mph 1023.2mb 58f 72f
1:36 20 24 mph 1023.3mb 58f 71f
1:30 20 23 mph 1023.4mb 58f 71f
1:24 17 20 mph 1023.5mb 58f 71f
1:18 13 23 mph 1023.6mb 58f 67f
1:12 20 21 mph 1023.5mb 58f 72f
1:06 16 21 mph 1023.6mb 58f 71f
1:00 17 20 mph 1023.7mb 58f 71f
12:54 18 20 mph 1023.8mb 58f 72f
12:48 14 16 mph 1023.9mb 58f 71f
12:42 13 16 mph 1024mb 58f 66f
12:36 11 16 mph 1024mb 58f 68f
12:30 14 18 mph 1024.1mb 58f 66f
12:24 13 18 mph 1024.1mb 58f 64f
12:18 14 20 mph 1024.3mb 58f 64f
12:12 13 14 mph 1024.3mb 58f 65f
12:06 13 16 mph 1024.4mb 58f 65f
12:00 13 14 mph 1024.4mb 58f 66f
11:54 11 15 mph 1024.6mb 58f 64f
11:48 13 15 mph 1024.6mb 58f 65f
11:42 10 17 mph 1024.8mb 58f 66f
11:36 11 16 mph 1024.7mb 58f 70f
11:30 8 9 mph 1024.7mb 58f 70f
11:24 9 14 mph 1024.7mb 57f 71f
11:18 10 14 mph 1024.7mb 57f 70f
11:12 7 11 mph 1024.7mb 57f 70f
11:06 8 14 mph 1024.8mb 57f 69f
11:00 14 17 mph 1024.8mb 57f 70f
10:54 16 17 mph 1024.9mb 57f 69f
10:48 9 11 mph 1025mb 57f 68f
10:42 11 15 mph 1025.1mb 57f 68f
10:36 13 15 mph 1025.1mb 57f 68f
10:30 10 14 mph 1025.2mb 57f 67f
10:24 13 14 mph 1025.3mb 57f 67f
10:18 10 14 mph 1025.3mb 57f 66f
10:12 11 14 mph 1025.3mb 57f 66f
10:06 11 14 mph 1025.3mb 57f 66f
10:00 13 15 mph 1025.2mb 57f 66f
9:54 10 14 mph 1025.3mb 57f 64f
9:48 13 14 mph 1025.3mb 57f 65f
9:42 11 14 mph 1025.4mb 57f 64f
9:36 10 13 mph 1025.4mb 57f 64f
9:30 11 13 mph 1025.5mb 57f 63f
9:24 11 13 mph 1025.6mb 57f 63f
9:18 11 14 mph 1025.6mb 57f 62f
9:12 11 14 mph 1025.6mb 56f 62f
9:06 11 14 mph 1025.7mb 56f 62f
9:00 13 15 mph 1025.8mb 56f 62f
8:54 13 14 mph 1025.8mb 56f 61f
8:48 13 15 mph 1025.8mb 56f 61f
8:42 14 16 mph 1025.8mb 56f 61f
8:36 13 14 mph 1025.8mb 56f 60f
8:30 13 14 mph 1025.9mb 56f 60f
8:24 10 11 mph 1025.9mb 56f 60f
8:18 9 11 mph 1026mb 56f 59f
8:12 9 14 mph 1025.9mb 56f 59f
8:06 11 14 mph 1025.8mb 56f 59f
8:00 13 14 mph 1025.7mb 56f 58f
7:54 13 15 mph 1025.7mb 56f 58f
7:48 11 14 mph 1025.7mb 56f 57f
7:42 10 14 mph 1025.6mb 56f 57f
7:36 11 14 mph 1025.7mb 56f 56f
7:30 10 11 mph 1025.8mb 56f 56f
7:24 11 14 mph 1025.8mb 56f 55f
7:18 10 13 mph 1025.8mb 56f 55f
7:12 10 13 mph 1025.8mb 56f 55f
7:06 10 13 mph 1025.9mb 56f 54f
7:00 10 11 mph 1025.9mb 56f 54f
6:54 11 14 mph 1025.9mb 56f 53f
6:48 10 13 mph 1025.9mb 56f 53f
6:42 10 16 mph 1025.9mb 56f 53f
6:36 10 14 mph 1026mb 56f 53f
6:30 9 11 mph 1026mb 56f 52f
6:24 10 13 mph 1026.1mb 56f 52f
6:18 11 15 mph 1026.1mb 56f 51f
6:12 13 15 mph 1026mb 56f 51f
6:06 14 16 mph 1025.9mb 56f 51f
6:00 14 15 mph 1025.8mb 56f 51f
5:54 11 14 mph 1025.7mb 56f 51f
5:48 13 14 mph 1025.6mb 56f 51f
5:42 13 17 mph 1025.6mb 56f 51f
5:36 13 16 mph 1025.6mb 56f 51f
5:30 13 16 mph 1025.5mb 56f 51f
5:24 14 17 mph 1025.5mb 56f 52f
5:18 15 18 mph 1025.6mb 56f 51f
5:12 15 17 mph 1025.7mb 56f 52f
5:06 16 18 mph 1025.7mb 56f 52f
5:00 14 16 mph 1025.7mb 56f 52f
4:54 14 16 mph 1025.7mb 56f 52f
4:48 14 16 mph 1025.6mb 56f 51f
4:42 14 17 mph 1025.6mb 56f 51f
4:36 16 18 mph 1025.6mb 56f 51f
4:30 14 17 mph 1025.6mb 56f 52f
4:24 14 17 mph 1025.7mb 56f 51f
4:18 14 15 mph 1025.7mb 56f 51f
4:12 13 16 mph 1025.8mb 56f 51f
4:06 14 15 mph 1026mb 56f 51f
4:00 11 14 mph 1026mb 56f 51f
3:54 11 15 mph 1026mb 56f 51f
3:48 11 14 mph 1026.1mb 56f 51f
3:42 11 14 mph 1026.1mb 56f 51f
3:36 10 14 mph 1026.1mb 56f 51f
3:30 11 14 mph 1026.1mb 56f 51f
3:24 13 14 mph 1026mb 56f 51f
3:18 13 14 mph 1026.1mb 56f 51f
3:12 11 13 mph 1026.1mb 56f 51f
3:06 11 14 mph 1026.1mb 56f 51f
3:00 11 14 mph 1026.1mb 56f 51f
2:54 13 15 mph 1026.2mb 56f 52f
2:48 14 15 mph 1026.1mb 57f 51f
2:42 13 16 mph 1026.2mb 57f 51f
2:36 14 16 mph 1026.2mb 57f 51f
2:30 13 16 mph 1026.1mb 57f 51f
2:24 11 16 mph 1026.1mb 57f 51f
2:18 14 17 mph 1026.1mb 57f 51f
2:12 11 15 mph 1026.2mb 57f 51f
2:06 10 13 mph 1026.2mb 57f 51f
2:00 11 13 mph - 57f 51f
1:54 11 13 mph - 57f 51f
1:48 11 13 mph 1026.2mb 57f 51f
1:42 10 13 mph 1026.3mb 57f 51f
1:36 10 14 mph 1026.3mb 57f 51f
1:30 11 15 mph 1026.2mb 57f 51f
1:24 11 13 mph 1026.3mb 57f 51f
1:18 11 15 mph 1026.4mb 57f 51f
1:12 10 14 mph 1026.4mb 57f 51f
1:06 11 14 mph 1026.5mb 57f 51f
1:00 11 14 mph 1026.4mb 57f 51f
12:54 11 14 mph 1026.4mb 57f 51f
12:48 11 14 mph 1026.4mb 57f 51f
12:42 13 14 mph 1026.4mb 57f 51f
12:36 13 15 mph 1026.3mb 57f 52f
12:30 11 15 mph 1026.4mb 57f 52f
12:24 13 15 mph 1026.5mb 57f 52f
12:18 11 14 mph 1026.6mb 57f 52f
12:12 11 15 mph 1026.6mb 57f 52f
12:06 13 15 mph 1026.5mb 57f 52f
12:00 13 14 mph 1026.6mb 57f 52f
Sáb 05/23 11:54 11 14 mph 1026.6mb 57f 52f
11:48 13 15 mph 1026.6mb 57f 52f
11:42 11 16 mph 1026.7mb 57f 52f
11:36 13 16 mph 1026.6mb 57f 52f
11:30 14 16 mph 1026.6mb 57f 52f
11:24 14 17 mph 1026.5mb 57f 52f
11:18 16 18 mph 1026.5mb 57f 53f
11:12 16 18 mph 1026.3mb 57f 53f
11:06 15 18 mph 1026.3mb 57f 53f
11:00 15 16 mph 1026.3mb 57f 53f
10:54 15 16 mph 1026.3mb 57f 53f
10:48 14 16 mph 1026.4mb 57f 53f
10:42 11 15 mph 1026.4mb 57f 53f
10:36 13 15 mph 1026.3mb 57f 53f
10:30 13 15 mph 1026.2mb 57f 53f
10:24 13 15 mph 1026.3mb 57f 53f
10:18 14 16 mph 1026.3mb 57f 53f